sensor_id;sensor_type;location;lat;lon;timestamp;P1;durP1;ratioP1;P2;durP2;ratioP2
10031;SDS011;5056;44.272;19.892;2023-04-06T00:01:06;24.43;;;20.73;;
10031;SDS011;5056;44.272;19.892;2023-04-06T00:03:44;19.70;;;17.07;;
10031;SDS011;5056;44.272;19.892;2023-04-06T00:06:11;20.43;;;16.90;;
10031;SDS011;5056;44.272;19.892;2023-04-06T00:08:39;25.03;;;18.93;;
10031;SDS011;5056;44.272;19.892;2023-04-06T00:11:06;24.17;;;21.57;;
10031;SDS011;5056;44.272;19.892;2023-04-06T00:13:34;28.00;;;22.63;;
10031;SDS011;5056;44.272;19.892;2023-04-06T00:16:02;27.07;;;22.73;;
10031;SDS011;5056;44.272;19.892;2023-04-06T00:18:30;31.47;;;26.07;;
10031;SDS011;5056;44.272;19.892;2023-04-06T00:20:57;23.27;;;20.17;;
10031;SDS011;5056;44.272;19.892;2023-04-06T00:23:24;20.63;;;17.77;;
10031;SDS011;5056;44.272;19.892;2023-04-06T00:25:54;20.00;;;16.87;;
10031;SDS011;5056;44.272;19.892;2023-04-06T00:28:21;20.37;;;15.70;;
10031;SDS011;5056;44.272;19.892;2023-04-06T00:30:51;18.93;;;15.80;;
10031;SDS011;5056;44.272;19.892;2023-04-06T00:33:20;18.53;;;15.67;;
10031;SDS011;5056;44.272;19.892;2023-04-06T00:35:47;21.40;;;16.67;;
10031;SDS011;5056;44.272;19.892;2023-04-06T00:38:15;26.63;;;19.87;;
10031;SDS011;5056;44.272;19.892;2023-04-06T00:40:43;27.10;;;20.37;;
10031;SDS011;5056;44.272;19.892;2023-04-06T00:43:12;28.33;;;20.63;;
10031;SDS011;5056;44.272;19.892;2023-04-06T00:45:40;28.83;;;22.40;;
10031;SDS011;5056;44.272;19.892;2023-04-06T00:48:07;25.67;;;21.83;;
10031;SDS011;5056;44.272;19.892;2023-04-06T00:50:36;24.63;;;20.27;;
10031;SDS011;5056;44.272;19.892;2023-04-06T00:53:08;21.60;;;18.70;;
10031;SDS011;5056;44.272;19.892;2023-04-06T00:55:36;26.03;;;18.97;;
10031;SDS011;5056;44.272;19.892;2023-04-06T00:58:03;26.83;;;19.83;;
10031;SDS011;5056;44.272;19.892;2023-04-06T01:00:32;22.03;;;18.40;;
10031;SDS011;5056;44.272;19.892;2023-04-06T01:02:59;23.13;;;18.60;;
10031;SDS011;5056;44.272;19.892;2023-04-06T01:05:27;22.70;;;18.07;;
10031;SDS011;5056;44.272;19.892;2023-04-06T01:07:54;22.70;;;17.40;;
10031;SDS011;5056;44.272;19.892;2023-04-06T01:10:24;22.13;;;16.57;;
10031;SDS011;5056;44.272;19.892;2023-04-06T01:12:51;20.67;;;16.80;;
10031;SDS011;5056;44.272;19.892;2023-04-06T01:15:18;21.93;;;17.77;;
10031;SDS011;5056;44.272;19.892;2023-04-06T01:17:47;21.67;;;17.27;;
10031;SDS011;5056;44.272;19.892;2023-04-06T01:20:14;24.47;;;17.50;;
10031;SDS011;5056;44.272;19.892;2023-04-06T01:22:44;22.20;;;17.77;;
10031;SDS011;5056;44.272;19.892;2023-04-06T01:25:11;25.00;;;17.93;;
10031;SDS011;5056;44.272;19.892;2023-04-06T01:27:38;22.10;;;17.23;;
10031;SDS011;5056;44.272;19.892;2023-04-06T01:30:05;24.00;;;18.17;;
10031;SDS011;5056;44.272;19.892;2023-04-06T01:32:33;25.50;;;19.30;;
10031;SDS011;5056;44.272;19.892;2023-04-06T01:35:00;25.47;;;17.80;;
10031;SDS011;5056;44.272;19.892;2023-04-06T01:37:27;23.37;;;18.13;;
10031;SDS011;5056;44.272;19.892;2023-04-06T01:39:56;23.57;;;18.03;;
10031;SDS011;5056;44.272;19.892;2023-04-06T01:42:23;25.90;;;18.40;;
10031;SDS011;5056;44.272;19.892;2023-04-06T01:44:51;26.80;;;18.40;;
10031;SDS011;5056;44.272;19.892;2023-04-06T01:47:18;23.50;;;17.53;;
10031;SDS011;5056;44.272;19.892;2023-04-06T01:49:44;21.70;;;17.47;;
10031;SDS011;5056;44.272;19.892;2023-04-06T01:52:11;22.50;;;17.07;;
10031;SDS011;5056;44.272;19.892;2023-04-06T01:54:39;21.77;;;17.57;;
10031;SDS011;5056;44.272;19.892;2023-04-06T01:57:07;22.30;;;17.60;;
10031;SDS011;5056;44.272;19.892;2023-04-06T01:59:34;24.87;;;18.63;;
10031;SDS011;5056;44.272;19.892;2023-04-06T02:02:01;25.77;;;19.77;;
10031;SDS011;5056;44.272;19.892;2023-04-06T02:04:28;25.63;;;19.73;;
10031;SDS011;5056;44.272;19.892;2023-04-06T02:06:55;35.50;;;22.77;;
10031;SDS011;5056;44.272;19.892;2023-04-06T02:09:22;34.73;;;22.80;;
10031;SDS011;5056;44.272;19.892;2023-04-06T02:11:49;33.97;;;24.27;;
10031;SDS011;5056;44.272;19.892;2023-04-06T02:14:18;29.47;;;22.37;;
10031;SDS011;5056;44.272;19.892;2023-04-06T02:16:45;31.20;;;22.57;;
10031;SDS011;5056;44.272;19.892;2023-04-06T02:19:12;25.90;;;21.10;;
10031;SDS011;5056;44.272;19.892;2023-04-06T02:21:39;29.23;;;21.53;;
10031;SDS011;5056;44.272;19.892;2023-04-06T02:24:06;26.97;;;20.77;;
10031;SDS011;5056;44.272;19.892;2023-04-06T02:26:34;27.33;;;21.43;;
10031;SDS011;5056;44.272;19.892;2023-04-06T02:29:01;26.60;;;20.27;;
10031;SDS011;5056;44.272;19.892;2023-04-06T02:31:30;25.27;;;20.67;;
10031;SDS011;5056;44.272;19.892;2023-04-06T02:33:57;25.40;;;20.23;;
10031;SDS011;5056;44.272;19.892;2023-04-06T02:36:26;32.60;;;25.23;;
10031;SDS011;5056;44.272;19.892;2023-04-06T02:38:54;41.90;;;32.23;;
10031;SDS011;5056;44.272;19.892;2023-04-06T02:41:26;39.60;;;28.50;;
10031;SDS011;5056;44.272;19.892;2023-04-06T02:43:53;31.73;;;24.10;;
10031;SDS011;5056;44.272;19.892;2023-04-06T02:46:20;29.73;;;22.30;;
10031;SDS011;5056;44.272;19.892;2023-04-06T02:48:48;27.13;;;19.90;;
10031;SDS011;5056;44.272;19.892;2023-04-06T02:51:16;23.77;;;20.30;;
10031;SDS011;5056;44.272;19.892;2023-04-06T02:53:43;22.53;;;18.77;;
10031;SDS011;5056;44.272;19.892;2023-04-06T02:56:09;25.07;;;20.30;;
10031;SDS011;5056;44.272;19.892;2023-04-06T02:58:36;29.77;;;21.27;;
10031;SDS011;5056;44.272;19.892;2023-04-06T03:01:03;28.10;;;21.63;;
10031;SDS011;5056;44.272;19.892;2023-04-06T03:03:43;31.53;;;21.00;;
10031;SDS011;5056;44.272;19.892;2023-04-06T03:06:12;29.93;;;21.57;;
10031;SDS011;5056;44.272;19.892;2023-04-06T03:08:38;28.20;;;21.57;;
10031;SDS011;5056;44.272;19.892;2023-04-06T03:11:05;28.17;;;20.30;;
10031;SDS011;5056;44.272;19.892;2023-04-06T03:13:32;32.37;;;20.97;;
10031;SDS011;5056;44.272;19.892;2023-04-06T03:15:59;27.60;;;20.67;;
10031;SDS011;5056;44.272;19.892;2023-04-06T03:18:26;25.50;;;19.57;;
10031;SDS011;5056;44.272;19.892;2023-04-06T03:20:54;22.97;;;18.20;;
10031;SDS011;5056;44.272;19.892;2023-04-06T03:23:23;20.47;;;16.70;;
10031;SDS011;5056;44.272;19.892;2023-04-06T03:25:50;20.97;;;17.63;;
10031;SDS011;5056;44.272;19.892;2023-04-06T03:28:17;21.27;;;17.23;;
10031;SDS011;5056;44.272;19.892;2023-04-06T03:30:44;22.00;;;17.33;;
10031;SDS011;5056;44.272;19.892;2023-04-06T03:33:11;19.93;;;15.87;;
10031;SDS011;5056;44.272;19.892;2023-04-06T03:35:38;21.33;;;15.97;;
10031;SDS011;5056;44.272;19.892;2023-04-06T03:38:06;22.60;;;16.67;;
10031;SDS011;5056;44.272;19.892;2023-04-06T03:40:36;19.93;;;16.40;;
10031;SDS011;5056;44.272;19.892;2023-04-06T03:43:03;19.67;;;16.40;;
10031;SDS011;5056;44.272;19.892;2023-04-06T03:45:30;25.77;;;16.27;;
10031;SDS011;5056;44.272;19.892;2023-04-06T03:47:57;20.33;;;15.73;;
10031;SDS011;5056;44.272;19.892;2023-04-06T03:50:24;22.23;;;17.20;;
10031;SDS011;5056;44.272;19.892;2023-04-06T03:52:51;21.73;;;17.10;;
10031;SDS011;5056;44.272;19.892;2023-04-06T03:55:18;24.20;;;18.93;;
10031;SDS011;5056;44.272;19.892;2023-04-06T03:57:47;25.37;;;18.33;;
10031;SDS011;5056;44.272;19.892;2023-04-06T04:00:14;23.63;;;18.77;;
10031;SDS011;5056;44.272;19.892;2023-04-06T04:02:42;22.00;;;17.53;;
10031;SDS011;5056;44.272;19.892;2023-04-06T04:05:09;23.37;;;18.70;;
10031;SDS011;5056;44.272;19.892;2023-04-06T04:07:37;24.37;;;19.17;;
10031;SDS011;5056;44.272;19.892;2023-04-06T04:10:05;23.03;;;18.67;;
10031;SDS011;5056;44.272;19.892;2023-04-06T04:12:34;27.57;;;18.97;;
10031;SDS011;5056;44.272;19.892;2023-04-06T04:15:05;26.57;;;18.93;;
10031;SDS011;5056;44.272;19.892;2023-04-06T04:17:33;27.00;;;19.67;;
10031;SDS011;5056;44.272;19.892;2023-04-06T04:22:51;27.73;;;19.60;;
10031;SDS011;5056;44.272;19.892;2023-04-06T04:25:18;27.63;;;20.53;;
10031;SDS011;5056;44.272;19.892;2023-04-06T04:27:45;30.70;;;22.77;;
10031;SDS011;5056;44.272;19.892;2023-04-06T04:30:16;28.57;;;21.53;;
10031;SDS011;5056;44.272;19.892;2023-04-06T04:32:43;27.37;;;22.23;;
10031;SDS011;5056;44.272;19.892;2023-04-06T04:35:11;28.47;;;21.53;;
10031;SDS011;5056;44.272;19.892;2023-04-06T04:37:38;31.47;;;22.93;;
10031;SDS011;5056;44.272;19.892;2023-04-06T04:40:06;32.20;;;23.00;;
10031;SDS011;5056;44.272;19.892;2023-04-06T04:42:34;30.43;;;22.87;;
10031;SDS011;5056;44.272;19.892;2023-04-06T04:45:02;28.90;;;21.73;;
10031;SDS011;5056;44.272;19.892;2023-04-06T04:47:31;30.57;;;22.83;;
10031;SDS011;5056;44.272;19.892;2023-04-06T04:49:58;28.67;;;20.70;;
10031;SDS011;5056;44.272;19.892;2023-04-06T04:52:25;27.50;;;20.13;;
10031;SDS011;5056;44.272;19.892;2023-04-06T04:54:51;26.20;;;19.73;;
10031;SDS011;5056;44.272;19.892;2023-04-06T04:57:18;23.60;;;19.20;;
10031;SDS011;5056;44.272;19.892;2023-04-06T04:59:45;27.07;;;20.17;;
10031;SDS011;5056;44.272;19.892;2023-04-06T05:02:12;27.63;;;19.77;;
10031;SDS011;5056;44.272;19.892;2023-04-06T05:04:42;27.07;;;20.33;;
10031;SDS011;5056;44.272;19.892;2023-04-06T05:07:09;28.47;;;22.40;;
10031;SDS011;5056;44.272;19.892;2023-04-06T05:09:36;28.83;;;21.07;;
10031;SDS011;5056;44.272;19.892;2023-04-06T05:12:02;33.10;;;23.63;;
10031;SDS011;5056;44.272;19.892;2023-04-06T05:14:29;31.67;;;24.03;;
10031;SDS011;5056;44.272;19.892;2023-04-06T05:16:56;34.80;;;26.67;;
10031;SDS011;5056;44.272;19.892;2023-04-06T05:19:23;34.03;;;26.00;;
10031;SDS011;5056;44.272;19.892;2023-04-06T05:21:52;34.97;;;27.43;;
10031;SDS011;5056;44.272;19.892;2023-04-06T05:24:18;34.40;;;27.17;;
10031;SDS011;5056;44.272;19.892;2023-04-06T05:26:49;32.67;;;26.27;;
10031;SDS011;5056;44.272;19.892;2023-04-06T05:29:16;29.43;;;24.77;;
10031;SDS011;5056;44.272;19.892;2023-04-06T05:31:45;34.73;;;24.10;;
10031;SDS011;5056;44.272;19.892;2023-04-06T05:34:11;31.23;;;23.80;;
10031;SDS011;5056;44.272;19.892;2023-04-06T05:36:38;31.90;;;24.10;;
10031;SDS011;5056;44.272;19.892;2023-04-06T05:39:07;30.00;;;23.50;;
10031;SDS011;5056;44.272;19.892;2023-04-06T05:41:34;34.00;;;24.93;;
10031;SDS011;5056;44.272;19.892;2023-04-06T05:44:03;35.20;;;26.40;;
10031;SDS011;5056;44.272;19.892;2023-04-06T05:46:30;36.67;;;26.73;;
10031;SDS011;5056;44.272;19.892;2023-04-06T05:48:57;34.90;;;25.97;;
10031;SDS011;5056;44.272;19.892;2023-04-06T05:51:24;32.07;;;24.57;;
10031;SDS011;5056;44.272;19.892;2023-04-06T05:53:53;38.20;;;28.67;;
10031;SDS011;5056;44.272;19.892;2023-04-06T05:56:21;33.93;;;28.53;;
10031;SDS011;5056;44.272;19.892;2023-04-06T05:58:54;39.30;;;28.73;;
10031;SDS011;5056;44.272;19.892;2023-04-06T06:01:22;40.70;;;29.97;;
10031;SDS011;5056;44.272;19.892;2023-04-06T06:03:50;43.30;;;31.30;;
10031;SDS011;5056;44.272;19.892;2023-04-06T06:06:17;36.17;;;28.43;;
10031;SDS011;5056;44.272;19.892;2023-04-06T06:08:44;35.40;;;28.13;;
10031;SDS011;5056;44.272;19.892;2023-04-06T06:11:12;30.80;;;25.17;;
10031;SDS011;5056;44.272;19.892;2023-04-06T06:13:40;40.07;;;30.43;;
10031;SDS011;5056;44.272;19.892;2023-04-06T06:16:07;38.73;;;28.57;;
10031;SDS011;5056;44.272;19.892;2023-04-06T06:18:34;31.70;;;26.67;;
10031;SDS011;5056;44.272;19.892;2023-04-06T06:21:03;33.37;;;26.77;;
10031;SDS011;5056;44.272;19.892;2023-04-06T06:23:30;27.27;;;23.47;;
10031;SDS011;5056;44.272;19.892;2023-04-06T06:28:38;20.60;;;17.50;;
10031;SDS011;5056;44.272;19.892;2023-04-06T06:31:06;19.40;;;16.97;;
10031;SDS011;5056;44.272;19.892;2023-04-06T06:33:51;19.10;;;15.97;;
10031;SDS011;5056;44.272;19.892;2023-04-06T06:36:18;16.47;;;14.77;;
10031;SDS011;5056;44.272;19.892;2023-04-06T06:38:45;17.70;;;15.67;;
10031;SDS011;5056;44.272;19.892;2023-04-06T06:41:12;15.60;;;13.87;;
10031;SDS011;5056;44.272;19.892;2023-04-06T06:43:41;20.90;;;17.47;;
10031;SDS011;5056;44.272;19.892;2023-04-06T06:46:07;17.57;;;15.43;;
10031;SDS011;5056;44.272;19.892;2023-04-06T06:48:34;16.43;;;14.70;;
10031;SDS011;5056;44.272;19.892;2023-04-06T06:51:02;18.17;;;15.93;;
10031;SDS011;5056;44.272;19.892;2023-04-06T06:53:35;30.87;;;20.07;;
10031;SDS011;5056;44.272;19.892;2023-04-06T06:56:02;22.97;;;18.50;;
10031;SDS011;5056;44.272;19.892;2023-04-06T06:58:31;19.50;;;17.43;;
10031;SDS011;5056;44.272;19.892;2023-04-06T07:01:02;24.73;;;21.30;;
10031;SDS011;5056;44.272;19.892;2023-04-06T07:03:32;27.40;;;21.17;;
10031;SDS011;5056;44.272;19.892;2023-04-06T07:06:13;26.20;;;19.57;;
10031;SDS011;5056;44.272;19.892;2023-04-06T07:08:40;23.10;;;19.27;;
10031;SDS011;5056;44.272;19.892;2023-04-06T07:11:07;27.23;;;18.77;;
10031;SDS011;5056;44.272;19.892;2023-04-06T07:13:34;22.73;;;17.67;;
10031;SDS011;5056;44.272;19.892;2023-04-06T07:16:02;20.57;;;16.63;;
10031;SDS011;5056;44.272;19.892;2023-04-06T07:18:30;21.03;;;16.80;;
10031;SDS011;5056;44.272;19.892;2023-04-06T07:20:56;18.70;;;16.17;;
10031;SDS011;5056;44.272;19.892;2023-04-06T07:23:23;22.93;;;18.10;;
10031;SDS011;5056;44.272;19.892;2023-04-06T07:25:51;25.80;;;20.10;;
10031;SDS011;5056;44.272;19.892;2023-04-06T07:28:18;23.67;;;19.83;;
10031;SDS011;5056;44.272;19.892;2023-04-06T07:30:47;26.37;;;20.70;;
10031;SDS011;5056;44.272;19.892;2023-04-06T07:33:26;25.97;;;18.87;;
10031;SDS011;5056;44.272;19.892;2023-04-06T07:35:55;17.50;;;14.63;;
10031;SDS011;5056;44.272;19.892;2023-04-06T07:38:23;17.77;;;15.00;;
10031;SDS011;5056;44.272;19.892;2023-04-06T07:40:51;20.27;;;15.97;;
10031;SDS011;5056;44.272;19.892;2023-04-06T07:43:18;19.53;;;16.70;;
10031;SDS011;5056;44.272;19.892;2023-04-06T07:45:45;16.93;;;15.07;;
10031;SDS011;5056;44.272;19.892;2023-04-06T07:48:12;20.73;;;16.50;;
10031;SDS011;5056;44.272;19.892;2023-04-06T07:50:41;30.80;;;21.53;;
10031;SDS011;5056;44.272;19.892;2023-04-06T07:53:08;43.40;;;28.20;;
10031;SDS011;5056;44.272;19.892;2023-04-06T07:55:35;67.50;;;42.53;;
10031;SDS011;5056;44.272;19.892;2023-04-06T07:58:02;50.47;;;31.30;;
10031;SDS011;5056;44.272;19.892;2023-04-06T08:00:31;55.07;;;34.57;;
10031;SDS011;5056;44.272;19.892;2023-04-06T08:02:58;99.10;;;56.43;;
10031;SDS011;5056;44.272;19.892;2023-04-06T08:05:46;58.60;;;38.60;;
10031;SDS011;5056;44.272;19.892;2023-04-06T08:08:12;45.33;;;29.83;;
10031;SDS011;5056;44.272;19.892;2023-04-06T08:10:43;62.03;;;40.20;;
10031;SDS011;5056;44.272;19.892;2023-04-06T08:13:11;29.63;;;21.60;;
10031;SDS011;5056;44.272;19.892;2023-04-06T08:15:38;29.53;;;21.40;;
10031;SDS011;5056;44.272;19.892;2023-04-06T08:20:58;23.13;;;18.43;;
10031;SDS011;5056;44.272;19.892;2023-04-06T08:23:26;18.60;;;15.20;;
10031;SDS011;5056;44.272;19.892;2023-04-06T08:25:54;18.00;;;14.73;;
10031;SDS011;5056;44.272;19.892;2023-04-06T08:28:24;19.47;;;15.17;;
10031;SDS011;5056;44.272;19.892;2023-04-06T08:30:51;20.97;;;16.50;;
10031;SDS011;5056;44.272;19.892;2023-04-06T08:33:21;17.17;;;14.13;;
10031;SDS011;5056;44.272;19.892;2023-04-06T08:35:49;19.60;;;15.07;;
10031;SDS011;5056;44.272;19.892;2023-04-06T08:38:20;20.37;;;17.23;;
10031;SDS011;5056;44.272;19.892;2023-04-06T08:40:48;16.57;;;14.90;;
10031;SDS011;5056;44.272;19.892;2023-04-06T08:43:17;17.80;;;15.53;;
10031;SDS011;5056;44.272;19.892;2023-04-06T08:45:46;18.73;;;15.17;;
10031;SDS011;5056;44.272;19.892;2023-04-06T08:48:18;15.00;;;13.43;;
10031;SDS011;5056;44.272;19.892;2023-04-06T08:50:45;16.20;;;14.60;;
10031;SDS011;5056;44.272;19.892;2023-04-06T08:53:12;15.97;;;13.97;;
10031;SDS011;5056;44.272;19.892;2023-04-06T08:55:43;18.23;;;14.47;;
10031;SDS011;5056;44.272;19.892;2023-04-06T08:58:11;18.60;;;15.20;;
10031;SDS011;5056;44.272;19.892;2023-04-06T09:00:38;16.40;;;14.63;;
10031;SDS011;5056;44.272;19.892;2023-04-06T09:03:05;17.17;;;14.17;;
10031;SDS011;5056;44.272;19.892;2023-04-06T09:05:33;15.37;;;13.87;;
10031;SDS011;5056;44.272;19.892;2023-04-06T09:08:00;15.57;;;12.83;;
10031;SDS011;5056;44.272;19.892;2023-04-06T09:10:27;16.87;;;12.67;;
10031;SDS011;5056;44.272;19.892;2023-04-06T09:13:06;14.97;;;13.07;;
10031;SDS011;5056;44.272;19.892;2023-04-06T09:15:37;13.43;;;12.13;;
10031;SDS011;5056;44.272;19.892;2023-04-06T09:18:04;13.00;;;11.63;;
10031;SDS011;5056;44.272;19.892;2023-04-06T09:20:33;15.77;;;11.90;;
10031;SDS011;5056;44.272;19.892;2023-04-06T09:23:02;14.60;;;11.73;;
10031;SDS011;5056;44.272;19.892;2023-04-06T09:25:31;12.70;;;11.43;;
10031;SDS011;5056;44.272;19.892;2023-04-06T09:27:59;10.67;;;9.57;;
10031;SDS011;5056;44.272;19.892;2023-04-06T09:30:27;16.23;;;12.50;;
10031;SDS011;5056;44.272;19.892;2023-04-06T09:32:55;12.37;;;11.17;;
10031;SDS011;5056;44.272;19.892;2023-04-06T09:35:24;13.33;;;11.63;;
10031;SDS011;5056;44.272;19.892;2023-04-06T09:37:55;15.60;;;12.87;;
10031;SDS011;5056;44.272;19.892;2023-04-06T09:40:21;13.13;;;11.73;;
10031;SDS011;5056;44.272;19.892;2023-04-06T09:42:50;12.20;;;11.00;;
10031;SDS011;5056;44.272;19.892;2023-04-06T09:45:19;12.27;;;10.97;;
10031;SDS011;5056;44.272;19.892;2023-04-06T09:47:48;12.43;;;10.90;;
10031;SDS011;5056;44.272;19.892;2023-04-06T09:50:18;12.30;;;11.00;;
10031;SDS011;5056;44.272;19.892;2023-04-06T09:52:46;15.73;;;12.53;;
10031;SDS011;5056;44.272;19.892;2023-04-06T09:55:17;16.93;;;13.53;;
10031;SDS011;5056;44.272;19.892;2023-04-06T09:57:49;13.90;;;12.40;;
10031;SDS011;5056;44.272;19.892;2023-04-06T10:00:19;11.47;;;9.40;;
10031;SDS011;5056;44.272;19.892;2023-04-06T10:02:51;13.27;;;10.80;;
10031;SDS011;5056;44.272;19.892;2023-04-06T10:05:25;12.17;;;10.70;;
10031;SDS011;5056;44.272;19.892;2023-04-06T10:07:57;12.60;;;11.30;;
10031;SDS011;5056;44.272;19.892;2023-04-06T10:10:27;11.87;;;10.27;;
10031;SDS011;5056;44.272;19.892;2023-04-06T10:12:55;13.47;;;11.47;;
10031;SDS011;5056;44.272;19.892;2023-04-06T10:15:23;12.43;;;10.03;;
10031;SDS011;5056;44.272;19.892;2023-04-06T10:17:52;14.37;;;10.87;;
10031;SDS011;5056;44.272;19.892;2023-04-06T10:20:21;14.07;;;11.60;;
10031;SDS011;5056;44.272;19.892;2023-04-06T10:22:51;11.40;;;10.20;;
10031;SDS011;5056;44.272;19.892;2023-04-06T10:25:28;14.27;;;11.27;;
10031;SDS011;5056;44.272;19.892;2023-04-06T10:28:01;12.30;;;9.90;;
10031;SDS011;5056;44.272;19.892;2023-04-06T10:30:33;14.80;;;10.97;;
10031;SDS011;5056;44.272;19.892;2023-04-06T10:33:02;14.77;;;11.13;;
10031;SDS011;5056;44.272;19.892;2023-04-06T10:35:40;12.27;;;10.40;;
10031;SDS011;5056;44.272;19.892;2023-04-06T10:38:08;15.77;;;11.53;;
10031;SDS011;5056;44.272;19.892;2023-04-06T10:40:46;10.83;;;9.43;;
10031;SDS011;5056;44.272;19.892;2023-04-06T10:43:13;13.63;;;10.90;;
10031;SDS011;5056;44.272;19.892;2023-04-06T10:45:45;13.00;;;11.70;;
10031;SDS011;5056;44.272;19.892;2023-04-06T10:48:23;14.07;;;11.57;;
10031;SDS011;5056;44.272;19.892;2023-04-06T10:50:51;14.33;;;12.47;;
10031;SDS011;5056;44.272;19.892;2023-04-06T10:53:26;16.20;;;12.50;;
10031;SDS011;5056;44.272;19.892;2023-04-06T10:55:54;13.63;;;12.10;;
10031;SDS011;5056;44.272;19.892;2023-04-06T10:58:24;13.73;;;11.93;;
10031;SDS011;5056;44.272;19.892;2023-04-06T11:00:53;12.97;;;11.57;;
10031;SDS011;5056;44.272;19.892;2023-04-06T11:03:24;18.60;;;13.80;;
10031;SDS011;5056;44.272;19.892;2023-04-06T11:05:52;25.10;;;18.83;;
10031;SDS011;5056;44.272;19.892;2023-04-06T11:08:22;18.20;;;14.90;;
10031;SDS011;5056;44.272;19.892;2023-04-06T11:10:50;23.77;;;19.10;;
10031;SDS011;5056;44.272;19.892;2023-04-06T11:13:20;18.63;;;14.87;;
10031;SDS011;5056;44.272;19.892;2023-04-06T11:15:49;17.13;;;14.87;;
10031;SDS011;5056;44.272;19.892;2023-04-06T11:18:26;17.30;;;13.70;;
10031;SDS011;5056;44.272;19.892;2023-04-06T11:20:52;20.57;;;13.53;;
10031;SDS011;5056;44.272;19.892;2023-04-06T11:23:23;15.30;;;12.97;;
10031;SDS011;5056;44.272;19.892;2023-04-06T11:25:55;13.43;;;10.83;;
10031;SDS011;5056;44.272;19.892;2023-04-06T11:28:29;13.63;;;12.07;;
10031;SDS011;5056;44.272;19.892;2023-04-06T11:30:57;15.53;;;12.67;;
10031;SDS011;5056;44.272;19.892;2023-04-06T11:33:26;11.87;;;10.47;;
10031;SDS011;5056;44.272;19.892;2023-04-06T11:35:54;11.67;;;10.00;;
10031;SDS011;5056;44.272;19.892;2023-04-06T11:38:23;14.70;;;10.73;;
10031;SDS011;5056;44.272;19.892;2023-04-06T11:40:52;16.20;;;14.50;;
10031;SDS011;5056;44.272;19.892;2023-04-06T11:43:25;14.63;;;12.57;;
10031;SDS011;5056;44.272;19.892;2023-04-06T11:45:59;12.57;;;11.03;;
10031;SDS011;5056;44.272;19.892;2023-04-06T11:48:30;14.83;;;10.70;;
10031;SDS011;5056;44.272;19.892;2023-04-06T11:50:59;11.20;;;9.07;;
10031;SDS011;5056;44.272;19.892;2023-04-06T11:53:27;12.00;;;10.57;;
10031;SDS011;5056;44.272;19.892;2023-04-06T11:55:55;12.37;;;10.53;;
10031;SDS011;5056;44.272;19.892;2023-04-06T11:58:22;17.17;;;11.33;;
10031;SDS011;5056;44.272;19.892;2023-04-06T12:00:49;12.30;;;10.57;;
10031;SDS011;5056;44.272;19.892;2023-04-06T12:03:16;9.33;;;8.07;;
10031;SDS011;5056;44.272;19.892;2023-04-06T12:05:46;13.83;;;11.57;;
10031;SDS011;5056;44.272;19.892;2023-04-06T12:08:13;13.97;;;11.03;;
10031;SDS011;5056;44.272;19.892;2023-04-06T12:10:40;11.70;;;10.37;;
10031;SDS011;5056;44.272;19.892;2023-04-06T12:13:07;13.57;;;10.57;;
10031;SDS011;5056;44.272;19.892;2023-04-06T12:15:33;15.17;;;12.87;;
10031;SDS011;5056;44.272;19.892;2023-04-06T12:18:00;12.57;;;10.83;;
10031;SDS011;5056;44.272;19.892;2023-04-06T12:20:27;12.90;;;11.60;;
10031;SDS011;5056;44.272;19.892;2023-04-06T12:22:56;18.87;;;14.77;;
10031;SDS011;5056;44.272;19.892;2023-04-06T12:25:22;20.10;;;14.30;;
10031;SDS011;5056;44.272;19.892;2023-04-06T12:27:49;15.83;;;14.13;;
10031;SDS011;5056;44.272;19.892;2023-04-06T12:30:16;18.33;;;15.50;;
10031;SDS011;5056;44.272;19.892;2023-04-06T12:32:43;33.43;;;24.77;;
10031;SDS011;5056;44.272;19.892;2023-04-06T12:35:10;18.10;;;15.27;;
10031;SDS011;5056;44.272;19.892;2023-04-06T12:37:40;15.47;;;12.50;;
10031;SDS011;5056;44.272;19.892;2023-04-06T12:40:10;14.47;;;11.40;;
10031;SDS011;5056;44.272;19.892;2023-04-06T12:42:38;12.37;;;10.30;;
10031;SDS011;5056;44.272;19.892;2023-04-06T12:45:07;12.17;;;10.93;;
10031;SDS011;5056;44.272;19.892;2023-04-06T12:47:34;14.93;;;10.33;;
10031;SDS011;5056;44.272;19.892;2023-04-06T12:50:03;14.43;;;11.83;;
10031;SDS011;5056;44.272;19.892;2023-04-06T12:52:32;12.00;;;10.67;;
10031;SDS011;5056;44.272;19.892;2023-04-06T12:55:00;11.77;;;10.63;;
10031;SDS011;5056;44.272;19.892;2023-04-06T12:57:29;13.43;;;12.03;;
10031;SDS011;5056;44.272;19.892;2023-04-06T12:59:58;12.13;;;11.00;;
10031;SDS011;5056;44.272;19.892;2023-04-06T13:02:25;16.10;;;12.87;;
10031;SDS011;5056;44.272;19.892;2023-04-06T13:04:53;14.77;;;12.40;;
10031;SDS011;5056;44.272;19.892;2023-04-06T13:07:20;14.67;;;11.53;;
10031;SDS011;5056;44.272;19.892;2023-04-06T13:09:48;14.23;;;10.60;;
10031;SDS011;5056;44.272;19.892;2023-04-06T13:12:18;14.70;;;12.93;;
10031;SDS011;5056;44.272;19.892;2023-04-06T13:14:46;13.63;;;12.17;;
10031;SDS011;5056;44.272;19.892;2023-04-06T13:17:17;14.77;;;11.80;;
10031;SDS011;5056;44.272;19.892;2023-04-06T13:19:46;15.97;;;12.50;;
10031;SDS011;5056;44.272;19.892;2023-04-06T13:22:13;17.80;;;12.97;;
10031;SDS011;5056;44.272;19.892;2023-04-06T13:24:41;14.33;;;12.07;;
10031;SDS011;5056;44.272;19.892;2023-04-06T13:27:07;17.83;;;13.40;;
10031;SDS011;5056;44.272;19.892;2023-04-06T13:29:34;22.13;;;17.77;;
10031;SDS011;5056;44.272;19.892;2023-04-06T13:32:04;18.63;;;14.47;;
10031;SDS011;5056;44.272;19.892;2023-04-06T13:34:31;18.17;;;14.80;;
10031;SDS011;5056;44.272;19.892;2023-04-06T13:36:58;12.33;;;9.83;;
10031;SDS011;5056;44.272;19.892;2023-04-06T13:39:25;17.53;;;15.03;;
10031;SDS011;5056;44.272;19.892;2023-04-06T13:41:53;19.60;;;15.20;;
10031;SDS011;5056;44.272;19.892;2023-04-06T13:44:20;18.00;;;14.10;;
10031;SDS011;5056;44.272;19.892;2023-04-06T13:46:47;20.00;;;12.90;;
10031;SDS011;5056;44.272;19.892;2023-04-06T13:49:17;14.47;;;12.57;;
10031;SDS011;5056;44.272;19.892;2023-04-06T13:51:44;12.87;;;10.93;;
10031;SDS011;5056;44.272;19.892;2023-04-06T13:54:14;15.87;;;13.67;;
10031;SDS011;5056;44.272;19.892;2023-04-06T13:56:40;17.40;;;12.57;;
10031;SDS011;5056;44.272;19.892;2023-04-06T13:59:07;15.33;;;12.00;;
10031;SDS011;5056;44.272;19.892;2023-04-06T14:01:34;11.77;;;10.40;;
10031;SDS011;5056;44.272;19.892;2023-04-06T14:04:01;13.40;;;10.43;;
10031;SDS011;5056;44.272;19.892;2023-04-06T14:06:30;14.30;;;11.27;;
10031;SDS011;5056;44.272;19.892;2023-04-06T14:08:57;11.37;;;10.20;;
10031;SDS011;5056;44.272;19.892;2023-04-06T14:11:24;12.53;;;10.27;;
10031;SDS011;5056;44.272;19.892;2023-04-06T14:13:51;13.13;;;10.67;;
10031;SDS011;5056;44.272;19.892;2023-04-06T14:16:19;13.83;;;12.17;;
10031;SDS011;5056;44.272;19.892;2023-04-06T14:18:48;13.33;;;11.27;;
10031;SDS011;5056;44.272;19.892;2023-04-06T14:21:15;19.57;;;13.10;;
10031;SDS011;5056;44.272;19.892;2023-04-06T14:23:45;15.27;;;11.20;;
10031;SDS011;5056;44.272;19.892;2023-04-06T14:26:12;11.53;;;10.33;;
10031;SDS011;5056;44.272;19.892;2023-04-06T14:28:39;11.37;;;10.07;;
10031;SDS011;5056;44.272;19.892;2023-04-06T14:31:09;11.13;;;9.93;;
10031;SDS011;5056;44.272;19.892;2023-04-06T14:33:38;17.00;;;12.53;;
10031;SDS011;5056;44.272;19.892;2023-04-06T14:36:06;13.70;;;10.53;;